createdAt,value
2018-03-27T00:02:25.332Z,5.10
2018-03-27T00:04:59.117Z,5.10
2018-03-27T00:07:30.605Z,4.90
2018-03-27T00:10:00.918Z,4.70
2018-03-27T00:12:32.824Z,4.60
2018-03-27T00:15:03.260Z,4.40
2018-03-27T00:17:33.915Z,4.30
2018-03-27T00:20:04.243Z,4.40
2018-03-27T00:22:35.036Z,4.70
2018-03-27T00:25:05.878Z,5.00
2018-03-27T00:27:47.146Z,5.00
2018-03-27T00:30:34.781Z,5.00
2018-03-27T00:33:22.287Z,4.90
2018-03-27T00:36:09.836Z,4.90
2018-03-27T00:38:57.856Z,4.80
2018-03-27T00:41:43.048Z,4.70
2018-03-27T00:44:13.424Z,4.70
2018-03-27T00:46:43.605Z,4.70
2018-03-27T00:49:14.158Z,4.70
2018-03-27T00:51:46.255Z,4.60
2018-03-27T00:54:17.022Z,4.60
2018-03-27T00:56:47.541Z,4.70
2018-03-27T00:59:18.056Z,4.60
2018-03-27T01:01:48.425Z,4.70
2018-03-27T01:04:18.744Z,4.70
2018-03-27T01:06:49.178Z,4.60
2018-03-27T01:09:20.624Z,4.50
2018-03-27T01:11:50.994Z,4.50
2018-03-27T01:14:21.480Z,4.30
2018-03-27T01:16:52.362Z,4.30
2018-03-27T01:19:25.043Z,4.30
2018-03-27T01:21:56.200Z,4.20
2018-03-27T01:24:26.827Z,4.20
2018-03-27T01:26:57.703Z,4.30
2018-03-27T01:29:28.475Z,4.20
2018-03-27T01:31:59.570Z,4.20
2018-03-27T01:34:30.014Z,4.20
2018-03-27T01:37:00.882Z,4.20
2018-03-27T01:39:31.931Z,4.10
2018-03-27T01:42:02.287Z,4.10
2018-03-27T01:44:32.683Z,4.20
2018-03-27T01:47:04.033Z,4.20
2018-03-27T01:49:35.587Z,4.20
2018-03-27T01:52:05.876Z,4.20
2018-03-27T01:54:36.539Z,4.20
2018-03-27T01:57:07.309Z,4.20
2018-03-27T01:59:37.807Z,4.10
2018-03-27T02:02:08.216Z,4.10
2018-03-27T02:04:39.243Z,4.00
2018-03-27T02:07:09.640Z,4.00
2018-03-27T02:09:40.103Z,4.00
2018-03-27T02:12:15.876Z,4.10
2018-03-27T02:14:52.756Z,4.00
2018-03-27T02:17:30.008Z,4.00
2018-03-27T02:20:06.534Z,3.80
2018-03-27T02:22:37.591Z,3.80
2018-03-27T02:25:08.245Z,4.00
2018-03-27T02:27:39.200Z,3.90
2018-03-27T02:30:10.129Z,3.90
2018-03-27T02:32:40.827Z,3.80
2018-03-27T02:35:11.356Z,3.80
2018-03-27T02:37:41.697Z,3.90
2018-03-27T02:40:22.311Z,3.70
2018-03-27T02:42:53.312Z,3.90
2018-03-27T02:45:27.945Z,3.70
2018-03-27T02:47:59.258Z,4.10
2018-03-27T02:50:30.132Z,4.00
2018-03-27T02:53:00.387Z,4.20
2018-03-27T02:55:31.954Z,4.00
2018-03-27T02:58:02.412Z,4.00
2018-03-27T03:00:32.867Z,4.00
2018-03-27T03:03:03.380Z,4.00
2018-03-27T03:05:33.831Z,3.90
2018-03-27T03:08:04.254Z,3.90
2018-03-27T03:13:22.024Z,4.00
2018-03-27T03:15:52.871Z,4.00
2018-03-27T03:18:23.632Z,4.10
2018-03-27T03:20:54.729Z,4.20
2018-03-27T03:23:25.302Z,4.20
2018-03-27T03:25:56.448Z,4.30
2018-03-27T03:28:27.161Z,4.30
2018-03-27T03:30:57.899Z,4.30
2018-03-27T03:33:28.592Z,4.30
2018-03-27T03:35:59.628Z,4.30
2018-03-27T03:38:29.831Z,4.30
2018-03-27T03:41:00.062Z,4.30
2018-03-27T03:43:30.374Z,4.30
2018-03-27T03:46:00.698Z,4.30
2018-03-27T03:48:31.175Z,4.20
2018-03-27T03:51:02.388Z,4.20
2018-03-27T03:53:33.047Z,4.10
2018-03-27T03:56:03.574Z,4.00
2018-03-27T03:58:37.268Z,4.00
2018-03-27T04:01:07.554Z,3.70
2018-03-27T04:03:38.060Z,3.60
2018-03-27T04:06:09.177Z,3.70
2018-03-27T04:08:39.784Z,3.60
2018-03-27T04:11:10.661Z,3.70
2018-03-27T04:13:41.748Z,3.60
2018-03-27T04:16:13.102Z,3.80
2018-03-27T04:18:44.521Z,3.70
2018-03-27T04:21:14.833Z,3.70
2018-03-27T04:26:27.088Z,3.80
2018-03-27T04:28:57.310Z,3.80
2018-03-27T04:31:28.050Z,3.90
2018-03-27T04:33:58.653Z,3.90
2018-03-27T04:36:28.874Z,3.90
2018-03-27T04:38:59.198Z,4.00
2018-03-27T04:41:29.493Z,4.10
2018-03-27T04:44:00.437Z,4.00
2018-03-27T04:46:30.690Z,3.90
2018-03-27T04:49:01.365Z,4.20
2018-03-27T04:51:32.557Z,4.40
2018-03-27T04:54:10.474Z,4.40
2018-03-27T04:56:49.630Z,4.20
2018-03-27T04:59:19.870Z,4.20
2018-03-27T05:01:51.325Z,4.20
2018-03-27T05:04:25.656Z,4.20
2018-03-27T05:06:56.300Z,4.20
2018-03-27T05:09:27.884Z,4.20
2018-03-27T05:11:58.362Z,4.20
2018-03-27T05:14:29.794Z,4.10
2018-03-27T05:17:00.309Z,4.10
2018-03-27T05:19:31.563Z,4.30
2018-03-27T05:22:02.099Z,4.20
2018-03-27T05:24:33.846Z,4.40
2018-03-27T05:27:04.642Z,4.00
2018-03-27T05:29:36.196Z,4.20
2018-03-27T05:32:06.802Z,4.40
2018-03-27T05:38:18.387Z,4.40
2018-03-27T05:40:49.869Z,4.50
2018-03-27T05:43:34.689Z,4.40
2018-03-27T05:46:12.861Z,4.50
2018-03-27T05:48:43.941Z,4.40
2018-03-27T05:51:17.175Z,4.50
2018-03-27T05:53:48.377Z,4.50
2018-03-27T05:56:19.862Z,4.50
2018-03-27T05:58:51.727Z,4.70
2018-03-27T06:01:23.229Z,4.60
2018-03-27T06:03:53.948Z,4.60
2018-03-27T06:06:24.522Z,4.60
2018-03-27T06:09:33.407Z,4.70
2018-03-27T06:12:04.155Z,4.80
2018-03-27T06:14:35.468Z,4.80
2018-03-27T06:17:06.438Z,4.80
2018-03-27T06:19:36.915Z,4.80
2018-03-27T06:22:08.067Z,4.70
2018-03-27T06:24:38.396Z,4.70
2018-03-27T06:27:09.094Z,4.70
2018-03-27T06:29:41.717Z,4.80
2018-03-27T06:32:13.025Z,4.70
2018-03-27T06:34:44.249Z,4.70
2018-03-27T06:37:15.616Z,4.80
2018-03-27T06:39:47.574Z,4.90
2018-03-27T06:42:20.842Z,5.10
2018-03-27T06:44:52.041Z,5.30
2018-03-27T06:47:27.500Z,4.80
2018-03-27T06:49:58.467Z,5.10
2018-03-27T06:52:39.274Z,5.30
2018-03-27T06:55:19.812Z,5.60
2018-03-27T06:57:56.285Z,5.90
2018-03-27T07:00:26.958Z,5.90
2018-03-27T07:03:00.367Z,5.90
2018-03-27T07:05:33.568Z,6.00
2018-03-27T07:08:04.471Z,6.00
2018-03-27T07:10:37.264Z,5.90
2018-03-27T07:13:10.738Z,5.80
2018-03-27T07:15:51.249Z,5.70
2018-03-27T07:18:24.363Z,5.40
2018-03-27T07:21:02.203Z,5.40
2018-03-27T08:13:50.322Z,6.30
2018-03-27T08:16:21.772Z,6.30
2018-03-27T08:18:55.816Z,7.60
2018-03-27T08:21:27.436Z,7.60
2018-03-27T08:23:58.456Z,8.00
2018-03-27T08:26:35.540Z,8.50
2018-03-27T08:29:21.149Z,8.80
2018-03-27T08:31:54.106Z,9.40
2018-03-27T08:34:49.480Z,9.60
2018-03-27T08:37:29.200Z,9.70
2018-03-27T08:40:07.428Z,9.50
2018-03-27T08:42:40.476Z,9.30
2018-03-27T08:45:15.041Z,9.30
2018-03-27T08:47:57.786Z,9.10
2018-03-27T08:50:29.009Z,9.10
2018-03-27T08:53:00.681Z,9.00
2018-03-27T08:56:08.900Z,8.70
2018-03-27T08:58:46.598Z,8.40
2018-03-27T09:01:45.102Z,7.50
2018-03-27T09:04:42.333Z,7.60
2018-03-27T09:07:14.436Z,7.50
2018-03-27T09:09:50.087Z,8.30
2018-03-27T09:12:22.254Z,8.20
2018-03-27T09:14:56.964Z,8.50
2018-03-27T09:17:28.240Z,8.60
2018-03-27T09:21:34.547Z,8.60
2018-03-27T09:24:05.958Z,8.70
2018-03-27T09:26:37.193Z,8.00
2018-03-27T09:29:32.548Z,7.90
2018-03-27T09:32:37.399Z,7.70
2018-03-27T09:35:23.974Z,6.60
2018-03-27T09:37:57.951Z,6.50
2018-03-27T09:41:11.012Z,6.40
2018-03-27T09:43:43.413Z,6.70
2018-03-27T09:49:25.113Z,6.50
2018-03-27T09:55:55.418Z,6.00
2018-03-27T09:58:26.160Z,6.50
2018-03-27T10:00:58.027Z,6.40
2018-03-27T10:03:44.275Z,6.50
2018-03-27T10:06:16.193Z,6.50
2018-03-27T10:08:48.006Z,6.50
2018-03-27T10:11:19.381Z,6.40
2018-03-27T10:13:50.566Z,6.20
2018-03-27T10:16:23.634Z,6.30
2018-03-27T10:19:17.242Z,6.00
2018-03-27T10:21:51.733Z,6.00
2018-03-27T10:24:23.467Z,6.10
2018-03-27T10:27:27.110Z,6.50
2018-03-27T10:30:36.075Z,6.80
2018-03-27T10:33:07.244Z,7.30
2018-03-27T10:35:46.889Z,7.30
2018-03-27T10:38:19.433Z,7.40
2018-03-27T10:41:14.355Z,7.40
2018-03-27T10:43:51.003Z,7.60
2018-03-27T10:46:21.714Z,8.10
2018-03-27T10:48:54.072Z,8.30
2018-03-27T10:51:24.489Z,8.40
2018-03-27T10:53:58.696Z,8.80
2018-03-27T10:56:29.893Z,9.20
2018-03-27T10:59:01.788Z,9.10
2018-03-27T11:01:32.589Z,9.60
2018-03-27T11:04:07.754Z,10.90
2018-03-27T11:06:43.889Z,10.90
2018-03-27T11:09:15.652Z,12.30
2018-03-27T11:11:53.919Z,12.20
2018-03-27T11:14:25.205Z,13.00
2018-03-27T11:17:03.811Z,13.30
2018-03-27T11:20:05.368Z,13.70
2018-03-27T11:22:37.903Z,12.80
2018-03-27T11:25:09.704Z,13.20
2018-03-27T11:28:01.272Z,13.80
2018-03-27T11:30:32.807Z,13.40
2018-03-27T11:33:03.533Z,12.50
2018-03-27T11:35:34.943Z,11.90
2018-03-27T11:38:06.365Z,12.20
2018-03-27T11:40:58.195Z,11.80
2018-03-27T11:43:29.925Z,10.70
2018-03-27T11:46:01.000Z,10.70
2018-03-27T11:48:33.133Z,11.30
2018-03-27T11:51:25.552Z,11.80
2018-03-27T11:54:22.875Z,11.80
2018-03-27T11:56:58.222Z,13.10
2018-03-27T11:59:31.909Z,13.10
2018-03-27T12:02:03.217Z,12.30
2018-03-27T12:04:36.761Z,11.40
2018-03-27T12:07:07.819Z,11.00
2018-03-27T12:09:39.895Z,10.60
2018-03-27T12:12:10.708Z,10.60
2018-03-27T12:14:41.402Z,10.10
2018-03-27T12:17:12.501Z,9.80
2018-03-27T12:19:42.888Z,9.80
2018-03-27T12:22:14.349Z,8.90
2018-03-27T12:24:45.259Z,8.80
2018-03-27T12:27:18.325Z,8.20
2018-03-27T12:29:49.455Z,8.10
2018-03-27T12:32:20.434Z,7.70
2018-03-27T12:34:51.776Z,7.50
2018-03-27T12:37:22.047Z,7.50
2018-03-27T12:39:54.735Z,6.90
2018-03-27T12:42:29.386Z,7.00
2018-03-27T12:45:00.986Z,7.10
2018-03-27T12:47:36.563Z,7.10
2018-03-27T12:50:58.506Z,7.00
2018-03-27T12:53:48.316Z,6.90
2018-03-27T12:56:39.045Z,6.90
2018-03-27T13:02:32.109Z,7.00
2018-03-27T13:05:03.444Z,7.10
2018-03-27T13:07:35.603Z,6.90
2018-03-27T13:10:09.096Z,6.90
2018-03-27T13:15:54.607Z,7.10
2018-03-27T13:18:27.453Z,7.40
2018-03-27T13:20:59.108Z,7.60
2018-03-27T13:23:29.481Z,7.90
2018-03-27T13:26:00.538Z,8.00
2018-03-27T13:28:37.926Z,8.00
2018-03-27T13:31:12.688Z,7.90
2018-03-27T13:37:37.724Z,7.80
2018-03-27T13:40:09.628Z,7.60
2018-03-27T13:42:49.188Z,7.50
2018-03-27T13:45:35.259Z,7.70
2018-03-27T13:48:05.669Z,8.00
2018-03-27T13:51:16.625Z,8.10
2018-03-27T13:53:48.465Z,8.60
2018-03-27T13:57:09.304Z,8.60
2018-03-27T14:03:21.635Z,8.80
2018-03-27T14:05:54.629Z,9.00
2018-03-27T14:08:27.106Z,9.30
2018-03-27T14:11:06.591Z,9.40
2018-03-27T14:13:42.056Z,9.40
2018-03-27T14:16:39.892Z,9.60
2018-03-27T14:19:13.313Z,9.70
2018-03-27T14:21:57.771Z,9.70
2018-03-27T14:24:29.089Z,9.90
2018-03-27T14:27:05.622Z,10.00
2018-03-27T14:29:38.126Z,10.10
2018-03-27T14:32:10.909Z,10.20
2018-03-27T14:37:44.759Z,10.50
2018-03-27T14:40:30.009Z,10.80
2018-03-27T14:43:23.992Z,11.20
2018-03-27T14:45:56.598Z,11.70
2018-03-27T14:51:34.725Z,11.20
2018-03-27T14:57:31.126Z,10.00
2018-03-27T15:00:03.873Z,9.70
2018-03-27T15:02:47.178Z,9.60
2018-03-27T15:05:29.199Z,9.40
2018-03-27T15:08:00.953Z,9.40
2018-03-27T15:11:07.627Z,9.40
2018-03-27T15:13:40.429Z,9.40
2018-03-27T15:16:11.274Z,9.60
2018-03-27T15:18:42.133Z,9.80
2018-03-27T15:21:13.213Z,10.00
2018-03-27T15:23:44.387Z,10.00
2018-03-27T15:26:14.679Z,9.90
2018-03-27T15:28:50.860Z,9.70
2018-03-27T15:31:21.783Z,9.90
2018-03-27T15:33:53.338Z,10.10
2018-03-27T15:36:25.027Z,10.80
2018-03-27T15:39:01.747Z,10.80
2018-03-27T15:41:33.469Z,11.20
2018-03-27T15:44:04.522Z,11.20
2018-03-27T15:46:49.538Z,10.90
2018-03-27T15:49:20.512Z,10.80
2018-03-27T15:51:51.768Z,10.50
2018-03-27T15:54:26.700Z,10.50
2018-03-27T15:56:58.541Z,10.10
2018-03-27T15:59:29.603Z,10.20
2018-03-27T16:02:01.015Z,9.60
2018-03-27T16:04:32.736Z,9.60
2018-03-27T16:07:20.319Z,9.20
2018-03-27T16:10:03.825Z,9.00
2018-03-27T16:12:53.232Z,8.80
2018-03-27T16:15:26.237Z,9.00
2018-03-27T16:18:07.631Z,8.90
2018-03-27T16:20:40.167Z,8.80
2018-03-27T16:23:20.143Z,8.70
2018-03-27T18:06:18.368Z,8.70
2018-03-27T18:08:51.694Z,5.10
2018-03-27T18:11:22.178Z,5.10
2018-03-27T18:13:52.691Z,5.10
2018-03-27T18:16:23.312Z,4.80
2018-03-27T18:18:55.342Z,4.70
2018-03-27T18:21:26.638Z,4.70
2018-03-27T18:23:58.557Z,4.70
2018-03-27T18:26:29.284Z,4.80
2018-03-27T18:29:00.209Z,4.80
2018-03-27T18:31:31.359Z,4.80
2018-03-27T18:34:03.311Z,4.70
2018-03-27T18:36:34.789Z,4.50
2018-03-27T18:39:06.866Z,4.50
2018-03-27T18:41:37.662Z,4.50
2018-03-27T18:44:07.906Z,4.50
2018-03-27T18:46:38.233Z,4.40
2018-03-27T18:49:09.537Z,4.40
2018-03-27T18:51:39.819Z,4.30
2018-03-27T18:54:12.252Z,4.40
2018-03-27T18:56:43.581Z,4.40
2018-03-27T18:59:13.758Z,4.40
2018-03-27T19:01:46.085Z,4.50
2018-03-27T19:06:16.860Z,4.30
2018-03-27T19:08:49.954Z,4.30
2018-03-27T19:11:20.971Z,4.20
2018-03-27T19:13:52.500Z,4.10
2018-03-27T19:16:24.398Z,4.10
2018-03-27T19:18:55.451Z,4.10
2018-03-27T19:21:26.517Z,4.00
2018-03-27T19:23:58.573Z,4.00
2018-03-27T19:26:33.361Z,4.00
2018-03-27T19:29:06.282Z,4.00
2018-03-27T19:31:39.168Z,4.00
2018-03-27T19:34:10.572Z,4.00
2018-03-27T19:36:43.141Z,3.90
2018-03-27T19:39:15.778Z,3.90
2018-03-27T19:41:47.014Z,3.90
2018-03-27T19:44:17.725Z,3.80
2018-03-27T19:46:49.280Z,3.80
2018-03-27T19:49:20.610Z,3.70
2018-03-27T19:51:51.013Z,3.70
2018-03-27T19:54:21.566Z,3.70
2018-03-27T19:56:52.120Z,3.60
2018-03-27T19:59:23.130Z,3.60
2018-03-27T20:01:53.440Z,3.60
2018-03-27T20:04:24.561Z,3.40
2018-03-27T20:06:55.388Z,3.40
2018-03-27T20:09:25.934Z,3.50
2018-03-27T20:11:56.642Z,3.50
2018-03-27T20:14:28.247Z,3.60
2018-03-27T20:16:58.526Z,3.60
2018-03-27T20:19:30.142Z,3.50
2018-03-27T20:22:01.295Z,3.50
2018-03-27T20:24:31.960Z,3.40
2018-03-27T20:27:02.185Z,3.40
2018-03-27T20:29:33.106Z,3.40
2018-03-27T20:32:03.844Z,3.40
2018-03-27T20:34:34.846Z,3.40
2018-03-27T20:37:05.367Z,3.40
2018-03-27T20:39:37.017Z,3.40
2018-03-27T20:42:18.486Z,3.30
2018-03-27T20:44:53.218Z,3.20
2018-03-27T20:47:23.541Z,3.20
2018-03-27T20:49:53.774Z,3.20
2018-03-27T20:52:24.024Z,3.10
2018-03-27T20:54:54.660Z,3.00
2018-03-27T20:57:25.321Z,2.80
2018-03-27T21:00:01.209Z,2.70
2018-03-27T21:02:39.983Z,2.50
2018-03-27T21:05:11.370Z,2.90
2018-03-27T21:07:42.518Z,2.90
2018-03-27T21:10:13.008Z,2.90
2018-03-27T21:12:43.989Z,3.00
2018-03-27T21:15:14.405Z,3.00
2018-03-27T21:17:44.765Z,3.10
2018-03-27T21:20:15.350Z,3.10
2018-03-27T21:22:45.921Z,3.00
2018-03-27T21:25:16.178Z,3.00
2018-03-27T21:27:46.270Z,3.00
2018-03-27T21:30:16.552Z,3.10
2018-03-27T21:32:47.322Z,3.00
2018-03-27T21:35:18.701Z,3.00
2018-03-27T21:37:50.639Z,3.00
2018-03-27T21:40:21.227Z,3.20
2018-03-27T21:42:51.539Z,3.30
2018-03-27T21:45:22.515Z,3.30
2018-03-27T21:47:52.762Z,3.30
2018-03-27T21:50:23.377Z,3.40
2018-03-27T21:52:54.010Z,3.40
2018-03-27T21:55:24.561Z,3.70
2018-03-27T21:57:55.267Z,3.80
2018-03-27T22:00:25.902Z,3.90
2018-03-27T22:02:56.450Z,4.00
2018-03-27T22:05:27.055Z,4.00
2018-03-27T22:07:58.042Z,4.00
2018-03-27T22:10:28.278Z,4.00
2018-03-27T22:12:59.572Z,4.00
2018-03-27T22:15:30.127Z,3.90
2018-03-27T22:18:00.853Z,3.80
2018-03-27T22:20:31.374Z,4.10
2018-03-27T22:23:01.775Z,4.10
2018-03-27T22:25:33.745Z,4.00
2018-03-27T22:28:04.233Z,4.10
2018-03-27T22:30:34.470Z,4.30
2018-03-27T22:33:05.359Z,4.40
2018-03-27T22:35:36.326Z,4.50
2018-03-27T22:38:08.187Z,4.60
2018-03-27T22:40:39.168Z,4.70
2018-03-27T22:43:09.395Z,4.70
2018-03-27T22:45:39.658Z,4.60
2018-03-27T22:48:10.745Z,4.60
2018-03-27T22:50:40.997Z,4.60
2018-03-27T22:53:11.269Z,4.60
2018-03-27T22:55:41.506Z,4.70
2018-03-27T22:58:12.039Z,4.80
2018-03-27T23:00:42.225Z,4.90
2018-03-27T23:03:12.796Z,5.10
2018-03-27T23:05:44.217Z,5.00
2018-03-27T23:08:14.913Z,5.00
2018-03-27T23:10:45.314Z,4.90
2018-03-27T23:13:15.900Z,4.90
2018-03-27T23:15:46.456Z,4.70
2018-03-27T23:18:17.150Z,4.70
2018-03-27T23:20:47.544Z,4.80
2018-03-27T23:23:18.075Z,4.80
2018-03-27T23:25:48.621Z,4.60
2018-03-27T23:28:19.617Z,4.70
2018-03-27T23:30:49.777Z,4.70
2018-03-27T23:33:20.400Z,4.80
2018-03-27T23:35:50.541Z,4.80
2018-03-27T23:38:21.145Z,4.40
2018-03-27T23:40:52.156Z,4.20
2018-03-27T23:43:22.416Z,4.30
2018-03-27T23:45:52.638Z,4.40
2018-03-27T23:48:22.882Z,4.50
2018-03-27T23:50:53.202Z,4.50
2018-03-27T23:53:23.682Z,4.50
2018-03-27T23:55:55.331Z,4.40
2018-03-27T23:58:26.592Z,4.40
